Vizconde de Eza — EAXB — position and weather

sailwx.info

Track history (hours):
 
Tides and Currents Weather Stations Pressure Air Temp Water Temp Dewpoint Dewpoint Depression Visibility Wind Speed Wind Dir Waves Ship Positions

Oceanographic research ship Vizconde de Eza (Spain)

Detailed information on ship capabilities available from University of Delaware's Ocean Information Center.

Last reported at 2016-Apr-20 17:23 UTC. Time now 2016-May-06 07:22 UTC.
Position N 43°44' W 006°23'.
Warning: this ship's position is 15 days out of date.

Length 53 m; draft 6.2 m.

Type: Other ship. MMSI: 224582000.

Date/timePositionNaut miles runAvg speedWind from/ knotsBaromVisibWave heightAir tempDewpointWater temp
2016-Apr-20 17:23N 43°44' W 006°23'4 2.0
2016-Apr-20 15:33N 43°44' W 006°18'1111.2
2016-Apr-20 14:32N 43°44' W 006°03'1111.2
2016-Apr-20 13:33N 43°43' W 005°48'1110.7
2016-Apr-20 12:33N 43°42' W 005°33'1110.8
2016-Apr-20 11:33N 43°42' W 005°18'1111.1
2016-Apr-20 10:33N 43°41' W 005°03'8 7.9
2016-Apr-20 09:33N 43°40' W 004°52'8 1.0
2016-Apr-20 01:19N 43°32' W 004°49'4 3.6
2016-Apr-20 00:13N 43°33' W 004°55'3 3.6
2016-Apr-19 23:29N 43°34' W 004°58'4 3.5
2016-Apr-19 22:28N 43°35' W 005°03'3 3.6
2016-Apr-19 21:33N 43°36' W 005°07'3 3.3
2016-Apr-19 20:33N 43°38' W 005°11'4 3.8
2016-Apr-19 19:33N 43°39' W 005°16'4 4.1
2016-Apr-19 18:33N 43°40' W 005°21'4 4.2
2016-Apr-19 17:33N 43°41' W 005°27'5 5.5
2016-Apr-19 16:33N 43°41' W 005°34'5 5.1
2016-Apr-19 15:32N 43°42' W 005°42'5 4.8
2016-Apr-19 14:33N 43°43' W 005°48'6 4.9
2016-Apr-19 13:26N 43°43' W 005°56'4 4.9
2016-Apr-19 12:33N 43°44' W 006°02'5 5.1
2016-Apr-19 11:29N 43°44' W 006°09'6 5.2
2016-Apr-19 10:20N 43°45' W 006°18'  
2016-Apr-17 05:30N 43°42' W 006°30'25 2.0
2016-Apr-16 17:03N 44°02' W 006°11'6 9.8
2016-Apr-16 16:28N 43°56' W 006°11'4 4.1
2016-Apr-16 15:29N 43°52' W 006°10'5 5.0
2016-Apr-16 14:33N 43°48' W 006°10'10 9.9
2016-Apr-16 13:31N 43°38' W 006°10'4 4.1
2016-Apr-16 12:33N 43°39' W 006°05'1010.5
2016-Apr-16 11:33N 43°42' W 005°51'3 2.8
2016-Apr-16 10:33N 43°45' W 005°50'7 7.5
2016-Apr-16 09:33N 43°52' W 005°50'7 6.2
2016-Apr-16 08:25N 43°59' W 005°51'26 1.7
2016-Apr-15 17:18N 43°38' W 005°30'2 3.1
2016-Apr-15 16:33N 43°38' W 005°26'8 8.0
2016-Apr-15 15:33N 43°37' W 005°16'4 4.4
2016-Apr-15 14:33N 43°37' W 005°09'5 4.5
2016-Apr-15 13:28N 43°42' W 005°09'10 8.6
2016-Apr-15 12:15N 43°53' W 005°08'1 1.8
2016-Apr-15 11:32N 43°53' W 005°10'15 1.6
2016-Apr-15 02:23N 43°53' W 004°50'5 6.5
2016-Apr-15 01:33N 43°47' W 004°50'  
2016-Apr-12 01:29N 43°53' W 002°00'8 7.6
2016-Apr-12 00:26N 43°53' W 001°49'16 8.2
2016-Apr-11 22:31N 43°37' W 001°48'4 3.4
2016-Apr-11 21:18N 43°33' W 001°50'8 9.1
2016-Apr-11 20:25N 43°25' W 001°50'5 5.4
2016-Apr-11 19:34N 43°29' W 001°46'1010.2
2016-Apr-11 18:33N 43°35' W 001°35'5 5.2
2016-Apr-11 17:30N 43°39' W 001°30'11 9.4
2016-Apr-11 16:20N 43°50' W 001°30'4 4.0
2016-Apr-11 15:25N 43°54' W 001°30'1910.3
2016-Apr-11 13:34N 44°13' W 001°27'7 5.9
2016-Apr-11 12:23N 44°15' W 001°36'6 7.3
2016-Apr-11 11:33N 44°15' W 001°45'20 3.8
2016-Apr-11 06:14N 44°14' W 002°13'2 2.6
2016-Apr-11 05:29N 44°15' W 002°15'31 3.0
2016-Apr-10 19:21N 44°45' W 002°24'6 7.1
2016-Apr-10 18:33N 44°45' W 002°16'  
Track history (hours):
 
Tides and Currents Weather Stations Pressure Air Temp Water Temp Dewpoint Dewpoint Depression Visibility Wind Speed Wind Dir Waves Ship Positions

Oceanographic research ship Vizconde de Eza (Spain)

Detailed information on ship capabilities available from University of Delaware's Ocean Information Center.

Last reported at 2016-Apr-20 17:23 UTC. Time now 2016-May-06 07:22 UTC.
Position N 43°44' W 006°23'.
Warning: this ship's position is 15 days out of date.

Length 53 m; draft 6.2 m.

Type: Other ship. MMSI: 224582000.

Date/timePositionNaut miles runAvg speedWind from/ knotsBaromVisibWave heightAir tempDewpointWater temp
2016-Apr-20 17:23N 43°44' W 006°23'4 2.0
2016-Apr-20 15:33N 43°44' W 006°18'1111.2
2016-Apr-20 14:32N 43°44' W 006°03'1111.2
2016-Apr-20 13:33N 43°43' W 005°48'1110.7
2016-Apr-20 12:33N 43°42' W 005°33'1110.8
2016-Apr-20 11:33N 43°42' W 005°18'1111.1
2016-Apr-20 10:33N 43°41' W 005°03'8 7.9
2016-Apr-20 09:33N 43°40' W 004°52'8 1.0
2016-Apr-20 01:19N 43°32' W 004°49'4 3.6
2016-Apr-20 00:13N 43°33' W 004°55'3 3.6
2016-Apr-19 23:29N 43°34' W 004°58'4 3.5
2016-Apr-19 22:28N 43°35' W 005°03'3 3.6
2016-Apr-19 21:33N 43°36' W 005°07'3 3.3
2016-Apr-19 20:33N 43°38' W 005°11'4 3.8
2016-Apr-19 19:33N 43°39' W 005°16'4 4.1
2016-Apr-19 18:33N 43°40' W 005°21'4 4.2
2016-Apr-19 17:33N 43°41' W 005°27'5 5.5
2016-Apr-19 16:33N 43°41' W 005°34'5 5.1
2016-Apr-19 15:32N 43°42' W 005°42'5 4.8
2016-Apr-19 14:33N 43°43' W 005°48'6 4.9
2016-Apr-19 13:26N 43°43' W 005°56'4 4.9
2016-Apr-19 12:33N 43°44' W 006°02'5 5.1
2016-Apr-19 11:29N 43°44' W 006°09'6 5.2
2016-Apr-19 10:20N 43°45' W 006°18'  
2016-Apr-17 05:30N 43°42' W 006°30'25 2.0
2016-Apr-16 17:03N 44°02' W 006°11'6 9.8
2016-Apr-16 16:28N 43°56' W 006°11'4 4.1
2016-Apr-16 15:29N 43°52' W 006°10'5 5.0
2016-Apr-16 14:33N 43°48' W 006°10'10 9.9
2016-Apr-16 13:31N 43°38' W 006°10'4 4.1
2016-Apr-16 12:33N 43°39' W 006°05'1010.5
2016-Apr-16 11:33N 43°42' W 005°51'3 2.8
2016-Apr-16 10:33N 43°45' W 005°50'7 7.5
2016-Apr-16 09:33N 43°52' W 005°50'7 6.2
2016-Apr-16 08:25N 43°59' W 005°51'26 1.7
2016-Apr-15 17:18N 43°38' W 005°30'2 3.1
2016-Apr-15 16:33N 43°38' W 005°26'8 8.0
2016-Apr-15 15:33N 43°37' W 005°16'4 4.4
2016-Apr-15 14:33N 43°37' W 005°09'5 4.5
2016-Apr-15 13:28N 43°42' W 005°09'10 8.6
2016-Apr-15 12:15N 43°53' W 005°08'1 1.8
2016-Apr-15 11:32N 43°53' W 005°10'15 1.6
2016-Apr-15 02:23N 43°53' W 004°50'5 6.5
2016-Apr-15 01:33N 43°47' W 004°50'  
2016-Apr-12 01:29N 43°53' W 002°00'8 7.6
2016-Apr-12 00:26N 43°53' W 001°49'16 8.2
2016-Apr-11 22:31N 43°37' W 001°48'4 3.4
2016-Apr-11 21:18N 43°33' W 001°50'8 9.1
2016-Apr-11 20:25N 43°25' W 001°50'5 5.4
2016-Apr-11 19:34N 43°29' W 001°46'1010.2
2016-Apr-11 18:33N 43°35' W 001°35'5 5.2
2016-Apr-11 17:30N 43°39' W 001°30'11 9.4
2016-Apr-11 16:20N 43°50' W 001°30'4 4.0
2016-Apr-11 15:25N 43°54' W 001°30'1910.3
2016-Apr-11 13:34N 44°13' W 001°27'7 5.9
2016-Apr-11 12:23N 44°15' W 001°36'6 7.3
2016-Apr-11 11:33N 44°15' W 001°45'20 3.8
2016-Apr-11 06:14N 44°14' W 002°13'2 2.6
2016-Apr-11 05:29N 44°15' W 002°15'31 3.0
2016-Apr-10 19:21N 44°45' W 002°24'6 7.1
2016-Apr-10 18:33N 44°45' W 002°16'  

Dump ship's entire track history